Manchester, Kansas
Current Conditions -  °F | °C
As of 1:20 AM on Thursday 23 Oct 2014 (Local Time) from KFRI Reporting Station
Light Rain Light Rain  
Wind Chill: 63°   Ceiling: 4900
Heat Index: 63°   Visibility: 8mi
Dew Point: 63°   Wind: 8mph
Humidity: 100%   Direction: 40°NE
Pressure: 30.08"   Gusts: NA
Location:  39.0421°N, 97.1702°W
Report Text: KFRI 230620Z AUTO 04007KT 8SM -RA OVC049 17/17 A3008 RMK AO2
Loading
Personal Weather Stations






























Interactive Weather Map
Tropical Storm Tracking
New forecast layout! Learn more

10-Day Weather Forecast

Advertisements
Track Severe Weather on mobile